Barbourville, KY (40906)

2:54 AM EDT on September 02, 2014 (GMT -0400)
liford's | Change Station
CLOSE
Current Station
Personal Weather Station
Location: Barbourville, KY
Elevation: 1066 ft
Nearby Weather Stations

Elev 1066 ft 36.84 °N, 83.85 °W | Updated 14 minutes ago

Clear
Clear
70.2 °F
Feels Like 70.2 °F
N
0.0
Wind Variable Wind from ENE

Today
High -- | Low -- °F
--% Chance of Precip.
Yesterday
High -- | Low -- °F
Precip. -- in
7:07 AM 8:02 PM
Waxing Crescent, 48% visible
Pressure 30.03 in
Visibility 10.0 miles
Clouds Clear
Dew Point 70 °F
Humidity 99%
Rainfall 0.00 in
Snow Depth Not available.
UV 0 out of 12
Pollen 9.60 out of 12
Air Quality Not available.
Flu Activity Not available.
METAR KLOZ 020553Z AUTO 19004KT 10SM CLR 23/19 A3007 RMK AO2 SLP168 T02330194 10283 20228 56003

More Conditions Fewer Conditions

Pressure 30.03 in
Visibility 10.0 miles
Clouds Clear
Dew Point 70 °F
Humidity 99%
Rainfall 0.00 in
Snow Depth Not available.
UV 0 out of 12
Pollen 9.60 out of 12
Air Quality Not available.
Flu Activity Not available.
METAR KLOZ 020553Z AUTO 19004KT 10SM CLR 23/19 A3007 RMK AO2 SLP168 T02330194 10283 20228 56003

More Conditions Fewer Conditions

10-Day Weather Forecast

Almanac

Astronomy

Sep. 02, 2014 Rise Set
Actual Time 7:07 AM EDT 8:02 PM EDT
Civil Twilight 6:40 AM EDT 8:28 PM EDT
Nautical Twilight 6:09 AM EDT 9:00 PM EDT
Astronomical Twilight 5:37 AM EDT 9:32 PM EDT
Moon 2:40 PM EDT 12:14 AM EDT
Length of Visible Light 13h 48m
Length of Day
12h 55m
Tomorrow will be 2m 16s shorter.
Waxing Crescent, 48% of the Moon is Illuminated
Today
Waxing Crescent
Sep 2
First Quarter
Sep 8
Full
Sep 15
Last Quarter
Sep 24
New

Today's Extremes

State Highs State Lows

Community

WunderPhotos

Upload Photos

1,749,589 photos uploaded!

WunderBlogs® & News

Nearby

Snow Depth

Station Depth Elevation
No new snow has been reported.

Earthquake Activity

City Distance Mag. Time & Date
No recent earthquake activity has been reported nearby.
Minimum magnitude displayed is 2.5.

Coastal Water Temperatures

Place Temperature
No Stations Reporting

Nearby Weather Stations